NCAR-RAP Real-Time Weather Data

Output produced by METARs form (08 May 2021  16:03 UTC)
found at http://weather.rap.ucar.edu/surface/
 
KDSM 081554Z 12011G25KT 10SM -RA SCT075 BKN085 OVC100 11/M01 A3001 RMK AO2 RAB28 SLP164 P0000 T01111006
KDSM 081454Z 11010G22KT 10SM BKN080 OVC100 11/M01 A3002 RMK AO2 SLP165 T01111011 58015
KDSM 081354Z 11014G22KT 10SM BKN085 BKN250 10/M01 A3002 RMK AO2 SLP167 T01001006
KDSM 081254Z 10009KT 10SM OVC085 09/M01 A3007 RMK AO2 SLP181 T00891006
KDSM 081154Z 11010G16KT 10SM FEW075 BKN090 BKN190 OVC250 08/M01 A3006 RMK AO2 SLP180 T00781011 10106 20072 53003
KDSM 081054Z 10008KT 10SM FEW075 SCT090 BKN190 BKN250 08/M02 A3005 RMK AO2 SLP176 TCU DSNT SW-W T00781017
KDSM 080954Z 10007G16KT 10SM SCT090 08/M02 A3005 RMK AO2 SLP176 T00831017
KDSM 080854Z 09009KT 10SM FEW080 BKN095 09/M02 A3005 RMK AO2 SLP176 T00891022 58005
KDSM 080754Z 11008KT 10SM BKN090 09/M03 A3007 RMK AO2 SLP182 T00941028
KDSM 080654Z 10008KT 10SM SCT095 10/M03 A3007 RMK AO2 SLP182 T01001033
KDSM 080554Z 09006KT 10SM SCT095 11/M04 A3007 RMK AO2 SLP181 T01061044 10183 20106 402000067 53008
KDSM 080454Z 09006KT 10SM FEW100 FEW250 11/M04 A3005 RMK AO2 SLP176 T01111044
KDSM 080354Z 06006KT 10SM CLR 12/M05 A3005 RMK AO2 SLP174 T01221050
KDSM 080254Z 06006KT 10SM FEW100 13/M06 A3004 RMK AO2 SLP172 T01331056 53010
KDSM 080154Z 05006KT 10SM FEW090 FEW250 16/M07 A3002 RMK AO2 SLP166 T01561067
KDSM 080054Z 01006KT 10SM FEW090 FEW300 16/M07 A3001 RMK AO2 SLP161 T01611072
KDSM 072354Z 03007KT 10SM FEW100 FEW200 18/M06 A3001 RMK AO2 SLP162 T01781061 10200 20172 56013
KDSM 072254Z 36010KT 10SM FEW180 FEW220 FEW300 19/M06 A3002 RMK AO2 SLP166 T01891061
KDSM 072154Z 30004KT 10SM FEW220 FEW300 19/M05 A3004 RMK AO2 SLP171 T01941050
KDSM 072054Z 01008KT 330V040 10SM FEW100 FEW250 19/M04 A3005 RMK AO2 SLP176 T01941044 56019
KDSM 071954Z 33009KT 10SM FEW090 FEW120 19/M05 A3007 RMK AO2 SLP181 T01941050
KDSM 071854Z 36011KT 10SM FEW090 FEW120 19/M04 A3008 RMK AO2 SLP187 T01891044
KDSM 071754Z 03011KT 10SM FEW100 17/M04 A3011 RMK AO2 SLP195 T01721044 10178 20094 58002
KDSM 071654Z 33011G18KT 10SM FEW000 FEW100 16/M03 A3012 RMK AO2 SLP200 FU FEW000 T01611033
KDSM 071554Z 34014G19KT 10SM FEW120 15/M01 A3013 RMK AO2 SLP201 T01501006
KDSM 071454Z 34015KT 10SM CLR 14/01 A3011 RMK AO2 SLP197 T01440011 51014
KDSM 071354Z 35009KT 10SM FEW110 13/02 A3011 RMK AO2 SLP196 T01280017
KDSM 071254Z 31009KT 10SM FEW110 12/02 A3009 RMK AO2 SLP190 T01170017
KDSM 071154Z 29006KT 10SM FEW110 09/02 A3007 RMK AO2 PK WND 34026/1059 WSHFT 1050 SLP183 T00940017 10100 20067 53007
KDSM 071106Z 27012G26KT 10SM FEW110 10/01 A3005 RMK AO2 PK WND 34026/1059 WSHFT 1050 T01000011
KDSM 071054Z 25013KT 10SM FEW110 10/01 A3004 RMK AO2 SLP172 T01000011
KDSM 070954Z 25008KT 10SM CLR 08/01 A3004 RMK AO2 SLP173 T00830006
KDSM 070854Z 24006KT 10SM CLR 07/00 A3005 RMK AO2 SLP177 T00720000 57016
KDSM 070754Z 23007KT 10SM CLR 07/M01 A3007 RMK AO2 SLP183 T00721011
KDSM 070654Z 23008KT 10SM CLR 09/M02 A3008 RMK AO2 SLP188 T00891022
KDSM 070554Z 21006KT 10SM CLR 09/M03 A3010 RMK AO2 SLP193 T00891028 10172 20078 401830078 58015
KDSM 070454Z 21006KT 10SM CLR 08/00 A3011 RMK AO2 SLP199 T00830000
KDSM 070354Z 21003KT 10SM CLR 11/M03 A3014 RMK AO2 SLP206 T01111028
KDSM 070254Z 00000KT 10SM FEW120 12/M03 A3015 RMK AO2 SLP210 T01221033 53006
KDSM 070154Z 33004KT 10SM FEW100 14/M04 A3014 RMK AO2 SLP207 T01391039
KDSM 070054Z 34009KT 10SM FEW095 16/M04 A3013 RMK AO2 SLP203 T01611044
KDSM 062354Z 30013G23KT 10SM FEW090 17/M04 A3013 RMK AO2 PK WND 31027/2326 SLP202 T01721039 10183 20144 56013
KDSM 062254Z 30015G24KT 10SM SCT090 18/M04 A3014 RMK AO2 SLP205 T01781039
KDSM 062154Z 31013G22KT 10SM SCT085 16/M02 A3015 RMK AO2 PK WND 30027/2100 SLP212 T01611022
KDSM 062054Z 30017G27KT 10SM SCT080 17/M03 A3017 RMK AO2 PK WND 31028/2019 SLP216 T01671028 58021
KDSM 061954Z 32012G22KT 10SM BKN075 16/M02 A3019 RMK AO2 SLP223 T01611017
KDSM 061854Z 33011G22KT 10SM SCT070 17/M02 A3021 RMK AO2 SLP230 T01671017
KDSM 061754Z 33013G21KT 10SM SCT060 16/00 A3023 RMK AO2 SLP236 T01610000 10161 20078 58007
KDSM 061654Z 32013G18KT 10SM SCT055 15/01 A3025 RMK AO2 SLP241 T01500011